KHON 220311Z 2203/2224 30007KT P6SM FEW250
FM220400 29010KT P6SM FEW250
FM221900 26011G17KT P6SM SCT050 SCT250
From batch tds/tafs/production/2024/5/22/h03_m20_tafs.cache.xml.gz
Issued (about 2 months ago)
Forecasts
2203/2204 30007KT 6+SM FEW25000

---
fcst_time_to: '2024-05-22T04:00:00Z'
sky_condition:
- sky_cover: FEW
  cloud_base_ft_agl: '25000'
wind_speed_kt: '7'
fcst_time_from: '2024-05-22T03:00:00Z'
wind_dir_degrees: '300'
visibility_statute_mi: 6+

FM220400 29010KT 6+SM FEW25000

---
fcst_time_to: '2024-05-22T19:00:00Z'
sky_condition:
- sky_cover: FEW
  cloud_base_ft_agl: '25000'
wind_speed_kt: '10'
fcst_time_from: '2024-05-22T04:00:00Z'
change_indicator: FM
wind_dir_degrees: '290'
visibility_statute_mi: 6+

FM221900 26011G17KT 6+SM SCT5000 SCT25000

---
fcst_time_to: '2024-05-23T00:00:00Z'
wind_gust_kt: '17'
sky_condition:
- - sky_cover: SCT
    cloud_base_ft_agl: '5000'
- - sky_cover: SCT
    cloud_base_ft_agl: '25000'
wind_speed_kt: '11'
fcst_time_from: '2024-05-22T19:00:00Z'
change_indicator: FM
wind_dir_degrees: '260'
visibility_statute_mi: 6+

talk